sensor_id;sensor_type;location;lat;lon;timestamp;temperature;humidity
680;DHT22;322;48.846;9.230;2022-11-21T00:00:59;5.70;99.90
680;DHT22;322;48.846;9.230;2022-11-21T00:03:26;5.80;99.90
680;DHT22;322;48.846;9.230;2022-11-21T00:05:53;5.90;99.90
680;DHT22;322;48.846;9.230;2022-11-21T00:08:20;6.00;99.90
680;DHT22;322;48.846;9.230;2022-11-21T00:10:48;6.10;99.90
680;DHT22;322;48.846;9.230;2022-11-21T00:13:16;6.10;99.90
680;DHT22;322;48.846;9.230;2022-11-21T00:15:45;6.20;99.90
680;DHT22;322;48.846;9.230;2022-11-21T00:18:13;6.20;99.90
680;DHT22;322;48.846;9.230;2022-11-21T00:20:40;6.30;99.90
680;DHT22;322;48.846;9.230;2022-11-21T00:23:07;6.30;99.90
680;DHT22;322;48.846;9.230;2022-11-21T00:25:35;6.30;99.90
680;DHT22;322;48.846;9.230;2022-11-21T00:28:02;6.30;99.90
680;DHT22;322;48.846;9.230;2022-11-21T00:30:29;6.30;99.90
680;DHT22;322;48.846;9.230;2022-11-21T00:32:58;6.30;99.90
680;DHT22;322;48.846;9.230;2022-11-21T00:35:25;6.30;99.90
680;DHT22;322;48.846;9.230;2022-11-21T00:37:51;6.30;99.90
680;DHT22;322;48.846;9.230;2022-11-21T00:40:18;6.30;99.90
680;DHT22;322;48.846;9.230;2022-11-21T00:42:45;6.30;99.90
680;DHT22;322;48.846;9.230;2022-11-21T00:45:12;6.20;99.90
680;DHT22;322;48.846;9.230;2022-11-21T00:47:38;6.20;99.90
680;DHT22;322;48.846;9.230;2022-11-21T00:50:08;6.20;99.90
680;DHT22;322;48.846;9.230;2022-11-21T00:52:34;6.10;99.90
680;DHT22;322;48.846;9.230;2022-11-21T00:55:01;6.00;99.90
680;DHT22;322;48.846;9.230;2022-11-21T00:57:28;6.00;99.90
680;DHT22;322;48.846;9.230;2022-11-21T00:59:55;5.80;99.90
680;DHT22;322;48.846;9.230;2022-11-21T01:02:21;5.80;99.90
680;DHT22;322;48.846;9.230;2022-11-21T01:04:48;5.80;99.90
680;DHT22;322;48.846;9.230;2022-11-21T01:07:16;5.80;99.90
680;DHT22;322;48.846;9.230;2022-11-21T01:09:43;5.80;99.90
680;DHT22;322;48.846;9.230;2022-11-21T01:12:10;5.90;99.90
680;DHT22;322;48.846;9.230;2022-11-21T01:14:37;5.90;99.90
680;DHT22;322;48.846;9.230;2022-11-21T01:17:03;5.90;99.90
680;DHT22;322;48.846;9.230;2022-11-21T01:19:30;5.90;99.90
680;DHT22;322;48.846;9.230;2022-11-21T01:21:57;6.00;99.90
680;DHT22;322;48.846;9.230;2022-11-21T01:24:25;5.90;99.90
680;DHT22;322;48.846;9.230;2022-11-21T01:26:52;5.90;99.90
680;DHT22;322;48.846;9.230;2022-11-21T01:29:19;6.00;99.90
680;DHT22;322;48.846;9.230;2022-11-21T01:31:46;6.00;99.90
680;DHT22;322;48.846;9.230;2022-11-21T01:34:14;6.00;99.90
680;DHT22;322;48.846;9.230;2022-11-21T01:36:41;6.00;99.90
680;DHT22;322;48.846;9.230;2022-11-21T01:39:10;6.00;99.90
680;DHT22;322;48.846;9.230;2022-11-21T01:41:40;5.90;99.90
680;DHT22;322;48.846;9.230;2022-11-21T01:44:15;5.80;99.90
680;DHT22;322;48.846;9.230;2022-11-21T01:46:43;5.80;99.90
680;DHT22;322;48.846;9.230;2022-11-21T01:49:12;5.80;99.90
680;DHT22;322;48.846;9.230;2022-11-21T01:51:43;5.80;99.90
680;DHT22;322;48.846;9.230;2022-11-21T01:54:14;5.80;99.90
680;DHT22;322;48.846;9.230;2022-11-21T01:56:47;5.80;99.90
680;DHT22;322;48.846;9.230;2022-11-21T01:59:18;5.70;99.90
680;DHT22;322;48.846;9.230;2022-11-21T02:01:47;5.70;99.90
680;DHT22;322;48.846;9.230;2022-11-21T02:04:17;5.70;99.90
680;DHT22;322;48.846;9.230;2022-11-21T02:06:43;5.70;99.90
680;DHT22;322;48.846;9.230;2022-11-21T02:09:11;5.60;99.90
680;DHT22;322;48.846;9.230;2022-11-21T02:11:41;5.60;99.90
680;DHT22;322;48.846;9.230;2022-11-21T02:14:11;5.60;99.90
680;DHT22;322;48.846;9.230;2022-11-21T02:16:37;5.60;99.90
680;DHT22;322;48.846;9.230;2022-11-21T02:19:07;5.60;99.90
680;DHT22;322;48.846;9.230;2022-11-21T02:21:42;5.60;99.90
680;DHT22;322;48.846;9.230;2022-11-21T02:24:15;5.50;99.90
680;DHT22;322;48.846;9.230;2022-11-21T02:26:45;5.50;99.90
680;DHT22;322;48.846;9.230;2022-11-21T02:29:14;5.60;99.90
680;DHT22;322;48.846;9.230;2022-11-21T02:31:41;5.60;99.90
680;DHT22;322;48.846;9.230;2022-11-21T02:34:08;5.60;99.90
680;DHT22;322;48.846;9.230;2022-11-21T02:36:39;5.60;99.90
680;DHT22;322;48.846;9.230;2022-11-21T02:39:09;5.60;99.90
680;DHT22;322;48.846;9.230;2022-11-21T02:41:39;5.50;99.90
680;DHT22;322;48.846;9.230;2022-11-21T02:44:14;5.50;99.90
680;DHT22;322;48.846;9.230;2022-11-21T02:46:46;5.50;99.90
680;DHT22;322;48.846;9.230;2022-11-21T02:49:17;5.50;99.90
680;DHT22;322;48.846;9.230;2022-11-21T02:51:45;5.50;99.90
680;DHT22;322;48.846;9.230;2022-11-21T02:54:12;5.40;99.90
680;DHT22;322;48.846;9.230;2022-11-21T02:56:38;5.40;99.90
680;DHT22;322;48.846;9.230;2022-11-21T02:59:05;5.40;99.90
680;DHT22;322;48.846;9.230;2022-11-21T03:01:33;5.40;99.90
680;DHT22;322;48.846;9.230;2022-11-21T03:04:00;5.40;99.90
680;DHT22;322;48.846;9.230;2022-11-21T03:06:27;5.40;99.90
680;DHT22;322;48.846;9.230;2022-11-21T03:08:53;5.40;99.90
680;DHT22;322;48.846;9.230;2022-11-21T03:11:20;5.40;99.90
680;DHT22;322;48.846;9.230;2022-11-21T03:13:47;5.40;99.90
680;DHT22;322;48.846;9.230;2022-11-21T03:16:14;5.30;99.90
680;DHT22;322;48.846;9.230;2022-11-21T03:18:42;5.20;99.90
680;DHT22;322;48.846;9.230;2022-11-21T03:21:08;5.20;99.90
680;DHT22;322;48.846;9.230;2022-11-21T03:23:35;5.10;99.90
680;DHT22;322;48.846;9.230;2022-11-21T03:26:02;5.10;99.90
680;DHT22;322;48.846;9.230;2022-11-21T03:28:29;5.10;99.90
680;DHT22;322;48.846;9.230;2022-11-21T03:30:55;5.10;99.90
680;DHT22;322;48.846;9.230;2022-11-21T03:33:22;5.10;99.90
680;DHT22;322;48.846;9.230;2022-11-21T03:35:50;5.10;99.90
680;DHT22;322;48.846;9.230;2022-11-21T03:38:17;5.10;99.90
680;DHT22;322;48.846;9.230;2022-11-21T03:40:44;5.20;99.90
680;DHT22;322;48.846;9.230;2022-11-21T03:43:10;5.20;99.90
680;DHT22;322;48.846;9.230;2022-11-21T03:45:37;5.20;99.90
680;DHT22;322;48.846;9.230;2022-11-21T03:48:04;5.30;99.90
680;DHT22;322;48.846;9.230;2022-11-21T03:50:31;5.40;99.90
680;DHT22;322;48.846;9.230;2022-11-21T03:52:59;5.40;99.90
680;DHT22;322;48.846;9.230;2022-11-21T03:55:26;5.40;99.90
680;DHT22;322;48.846;9.230;2022-11-21T03:57:53;5.50;99.90
680;DHT22;322;48.846;9.230;2022-11-21T04:00:19;5.50;99.90
680;DHT22;322;48.846;9.230;2022-11-21T04:02:46;5.50;99.90
680;DHT22;322;48.846;9.230;2022-11-21T04:05:13;5.60;99.90
680;DHT22;322;48.846;9.230;2022-11-21T04:07:40;5.60;99.90
680;DHT22;322;48.846;9.230;2022-11-21T04:10:09;5.70;99.90
680;DHT22;322;48.846;9.230;2022-11-21T04:12:35;5.70;99.90
680;DHT22;322;48.846;9.230;2022-11-21T04:15:03;5.70;99.90
680;DHT22;322;48.846;9.230;2022-11-21T04:17:30;5.80;99.90
680;DHT22;322;48.846;9.230;2022-11-21T04:19:57;5.80;99.90
680;DHT22;322;48.846;9.230;2022-11-21T04:22:23;5.80;99.90
680;DHT22;322;48.846;9.230;2022-11-21T04:24:50;5.80;99.90
680;DHT22;322;48.846;9.230;2022-11-21T04:27:18;5.80;99.90
680;DHT22;322;48.846;9.230;2022-11-21T04:29:45;5.80;99.90
680;DHT22;322;48.846;9.230;2022-11-21T04:32:12;5.90;99.90
680;DHT22;322;48.846;9.230;2022-11-21T04:34:38;5.90;99.90
680;DHT22;322;48.846;9.230;2022-11-21T04:37:06;5.80;99.90
680;DHT22;322;48.846;9.230;2022-11-21T04:39:33;5.90;99.90
680;DHT22;322;48.846;9.230;2022-11-21T04:42:00;5.90;99.90
680;DHT22;322;48.846;9.230;2022-11-21T04:44:28;5.90;99.90
680;DHT22;322;48.846;9.230;2022-11-21T04:46:54;5.90;99.90
680;DHT22;322;48.846;9.230;2022-11-21T04:49:21;5.90;99.90
680;DHT22;322;48.846;9.230;2022-11-21T04:51:48;5.90;99.90
680;DHT22;322;48.846;9.230;2022-11-21T04:54:15;5.90;99.90
680;DHT22;322;48.846;9.230;2022-11-21T04:56:44;5.90;99.90
680;DHT22;322;48.846;9.230;2022-11-21T04:59:11;5.90;99.90
680;DHT22;322;48.846;9.230;2022-11-21T05:01:39;6.00;99.90
680;DHT22;322;48.846;9.230;2022-11-21T05:04:05;6.00;99.90
680;DHT22;322;48.846;9.230;2022-11-21T05:06:32;6.00;99.90
680;DHT22;322;48.846;9.230;2022-11-21T05:08:59;6.00;99.90
680;DHT22;322;48.846;9.230;2022-11-21T05:11:26;6.00;99.90
680;DHT22;322;48.846;9.230;2022-11-21T05:14:10;6.00;99.90
680;DHT22;322;48.846;9.230;2022-11-21T05:16:38;6.00;99.90
680;DHT22;322;48.846;9.230;2022-11-21T05:19:05;6.00;99.90
680;DHT22;322;48.846;9.230;2022-11-21T05:21:32;6.10;99.90
680;DHT22;322;48.846;9.230;2022-11-21T05:23:58;6.10;99.90
680;DHT22;322;48.846;9.230;2022-11-21T05:26:25;6.10;99.90
680;DHT22;322;48.846;9.230;2022-11-21T05:28:52;6.20;99.90
680;DHT22;322;48.846;9.230;2022-11-21T05:31:19;6.20;99.90
680;DHT22;322;48.846;9.230;2022-11-21T05:33:47;6.20;99.90
680;DHT22;322;48.846;9.230;2022-11-21T05:36:13;6.30;99.90
680;DHT22;322;48.846;9.230;2022-11-21T05:38:40;6.30;99.90
680;DHT22;322;48.846;9.230;2022-11-21T05:41:07;6.30;99.90
680;DHT22;322;48.846;9.230;2022-11-21T05:43:34;6.30;99.90
680;DHT22;322;48.846;9.230;2022-11-21T05:46:15;6.30;99.90
680;DHT22;322;48.846;9.230;2022-11-21T05:48:42;6.30;99.90
680;DHT22;322;48.846;9.230;2022-11-21T05:51:10;6.40;99.90
680;DHT22;322;48.846;9.230;2022-11-21T05:53:37;6.40;99.90
680;DHT22;322;48.846;9.230;2022-11-21T05:56:06;6.40;99.90
680;DHT22;322;48.846;9.230;2022-11-21T05:58:33;6.50;99.90
680;DHT22;322;48.846;9.230;2022-11-21T06:01:00;6.50;99.90
680;DHT22;322;48.846;9.230;2022-11-21T06:03:30;6.40;99.90
680;DHT22;322;48.846;9.230;2022-11-21T06:06:02;6.30;99.90
680;DHT22;322;48.846;9.230;2022-11-21T06:08:32;6.30;99.90
680;DHT22;322;48.846;9.230;2022-11-21T06:11:00;6.30;99.90
680;DHT22;322;48.846;9.230;2022-11-21T06:13:26;6.20;99.90
680;DHT22;322;48.846;9.230;2022-11-21T06:15:57;6.10;99.90
680;DHT22;322;48.846;9.230;2022-11-21T06:18:24;6.00;99.90
680;DHT22;322;48.846;9.230;2022-11-21T06:20:51;5.90;99.90
680;DHT22;322;48.846;9.230;2022-11-21T06:23:18;5.80;99.90
680;DHT22;322;48.846;9.230;2022-11-21T06:25:46;5.70;99.90
680;DHT22;322;48.846;9.230;2022-11-21T06:28:13;5.70;99.90
680;DHT22;322;48.846;9.230;2022-11-21T06:30:39;5.70;99.90
680;DHT22;322;48.846;9.230;2022-11-21T06:33:06;5.80;99.90
680;DHT22;322;48.846;9.230;2022-11-21T06:35:36;5.80;99.90
680;DHT22;322;48.846;9.230;2022-11-21T06:38:04;5.80;99.90
680;DHT22;322;48.846;9.230;2022-11-21T06:40:31;5.90;99.90
680;DHT22;322;48.846;9.230;2022-11-21T06:42:59;5.80;99.90
680;DHT22;322;48.846;9.230;2022-11-21T06:45:26;5.90;99.90
680;DHT22;322;48.846;9.230;2022-11-21T06:47:53;5.90;99.90
680;DHT22;322;48.846;9.230;2022-11-21T06:50:20;5.80;99.90
680;DHT22;322;48.846;9.230;2022-11-21T06:52:47;5.80;99.90
680;DHT22;322;48.846;9.230;2022-11-21T06:55:14;5.80;99.90
680;DHT22;322;48.846;9.230;2022-11-21T06:57:40;5.80;99.90
680;DHT22;322;48.846;9.230;2022-11-21T07:00:10;5.80;99.90
680;DHT22;322;48.846;9.230;2022-11-21T07:02:37;5.80;99.90
680;DHT22;322;48.846;9.230;2022-11-21T07:05:04;5.80;99.90
680;DHT22;322;48.846;9.230;2022-11-21T07:07:31;5.80;99.90
680;DHT22;322;48.846;9.230;2022-11-21T07:09:58;5.80;99.90
680;DHT22;322;48.846;9.230;2022-11-21T07:12:25;5.80;99.90
680;DHT22;322;48.846;9.230;2022-11-21T07:15:11;5.90;99.90
680;DHT22;322;48.846;9.230;2022-11-21T07:17:37;6.00;99.90
680;DHT22;322;48.846;9.230;2022-11-21T07:20:05;6.00;99.90
680;DHT22;322;48.846;9.230;2022-11-21T07:22:32;6.00;99.90
680;DHT22;322;48.846;9.230;2022-11-21T07:24:59;6.00;99.90
680;DHT22;322;48.846;9.230;2022-11-21T07:27:26;6.00;99.90
680;DHT22;322;48.846;9.230;2022-11-21T07:29:52;6.00;99.90
680;DHT22;322;48.846;9.230;2022-11-21T07:32:23;6.10;99.90
680;DHT22;322;48.846;9.230;2022-11-21T07:34:50;6.10;99.90
680;DHT22;322;48.846;9.230;2022-11-21T07:37:16;6.20;99.90
680;DHT22;322;48.846;9.230;2022-11-21T07:39:43;6.20;99.90
680;DHT22;322;48.846;9.230;2022-11-21T07:42:10;6.20;99.90
680;DHT22;322;48.846;9.230;2022-11-21T07:44:37;6.30;99.90
680;DHT22;322;48.846;9.230;2022-11-21T07:47:04;6.30;99.90
680;DHT22;322;48.846;9.230;2022-11-21T07:49:32;6.30;99.90
680;DHT22;322;48.846;9.230;2022-11-21T07:51:59;6.30;99.90
680;DHT22;322;48.846;9.230;2022-11-21T07:54:26;6.30;99.90
680;DHT22;322;48.846;9.230;2022-11-21T07:56:54;6.30;99.90
680;DHT22;322;48.846;9.230;2022-11-21T07:59:20;6.30;99.90
680;DHT22;322;48.846;9.230;2022-11-21T08:01:49;6.30;99.90
680;DHT22;322;48.846;9.230;2022-11-21T08:04:16;6.30;99.90
680;DHT22;322;48.846;9.230;2022-11-21T08:06:44;6.40;99.90
680;DHT22;322;48.846;9.230;2022-11-21T08:09:10;6.40;99.90
680;DHT22;322;48.846;9.230;2022-11-21T08:11:37;6.50;99.90
680;DHT22;322;48.846;9.230;2022-11-21T08:14:04;6.60;99.90
680;DHT22;322;48.846;9.230;2022-11-21T08:16:31;6.70;99.90
680;DHT22;322;48.846;9.230;2022-11-21T08:18:58;6.90;99.90
680;DHT22;322;48.846;9.230;2022-11-21T08:21:25;7.20;99.90
680;DHT22;322;48.846;9.230;2022-11-21T08:23:53;7.50;99.90
680;DHT22;322;48.846;9.230;2022-11-21T08:26:20;7.80;99.90
680;DHT22;322;48.846;9.230;2022-11-21T08:28:47;8.00;99.90
680;DHT22;322;48.846;9.230;2022-11-21T08:31:14;8.20;99.90
680;DHT22;322;48.846;9.230;2022-11-21T08:33:41;8.30;99.90
680;DHT22;322;48.846;9.230;2022-11-21T08:36:08;8.40;99.90
680;DHT22;322;48.846;9.230;2022-11-21T08:38:35;8.30;99.90
680;DHT22;322;48.846;9.230;2022-11-21T08:41:03;8.20;99.90
680;DHT22;322;48.846;9.230;2022-11-21T08:43:47;8.20;99.90
680;DHT22;322;48.846;9.230;2022-11-21T08:46:13;8.20;99.90
680;DHT22;322;48.846;9.230;2022-11-21T08:48:41;8.20;99.90
680;DHT22;322;48.846;9.230;2022-11-21T08:51:08;8.10;99.90
680;DHT22;322;48.846;9.230;2022-11-21T08:53:35;8.00;99.90
680;DHT22;322;48.846;9.230;2022-11-21T08:56:03;8.00;99.90
680;DHT22;322;48.846;9.230;2022-11-21T08:58:30;8.00;99.90
680;DHT22;322;48.846;9.230;2022-11-21T09:00:58;8.00;99.90
680;DHT22;322;48.846;9.230;2022-11-21T09:03:24;8.10;99.90
680;DHT22;322;48.846;9.230;2022-11-21T09:05:51;8.20;99.90
680;DHT22;322;48.846;9.230;2022-11-21T09:08:18;8.30;99.90
680;DHT22;322;48.846;9.230;2022-11-21T09:10:45;8.50;99.90
680;DHT22;322;48.846;9.230;2022-11-21T09:13:13;8.90;99.90
680;DHT22;322;48.846;9.230;2022-11-21T09:15:39;9.30;99.90
680;DHT22;322;48.846;9.230;2022-11-21T09:18:24;9.70;99.90
680;DHT22;322;48.846;9.230;2022-11-21T09:20:51;10.10;99.90
680;DHT22;322;48.846;9.230;2022-11-21T09:23:18;10.40;99.90
680;DHT22;322;48.846;9.230;2022-11-21T09:25:44;10.60;99.90
680;DHT22;322;48.846;9.230;2022-11-21T09:28:13;10.70;99.90
680;DHT22;322;48.846;9.230;2022-11-21T09:30:40;10.80;99.90
680;DHT22;322;48.846;9.230;2022-11-21T09:33:10;10.40;99.90
680;DHT22;322;48.846;9.230;2022-11-21T09:35:37;10.20;99.90
680;DHT22;322;48.846;9.230;2022-11-21T09:38:04;10.10;99.90
680;DHT22;322;48.846;9.230;2022-11-21T09:40:33;10.10;99.90
680;DHT22;322;48.846;9.230;2022-11-21T09:43:25;9.90;99.90
680;DHT22;322;48.846;9.230;2022-11-21T09:45:58;9.70;99.90
680;DHT22;322;48.846;9.230;2022-11-21T09:48:31;9.70;99.90
680;DHT22;322;48.846;9.230;2022-11-21T09:51:06;9.80;99.90
680;DHT22;322;48.846;9.230;2022-11-21T09:53:37;10.00;99.90
680;DHT22;322;48.846;9.230;2022-11-21T09:56:08;10.30;99.90
680;DHT22;322;48.846;9.230;2022-11-21T09:58:40;10.70;99.90
680;DHT22;322;48.846;9.230;2022-11-21T10:01:10;11.00;99.90
680;DHT22;322;48.846;9.230;2022-11-21T10:03:41;11.10;99.90
680;DHT22;322;48.846;9.230;2022-11-21T10:06:16;11.30;99.90
680;DHT22;322;48.846;9.230;2022-11-21T10:08:53;11.50;99.90
680;DHT22;322;48.846;9.230;2022-11-21T10:11:28;11.70;99.90
680;DHT22;322;48.846;9.230;2022-11-21T10:14:10;11.60;99.90
680;DHT22;322;48.846;9.230;2022-11-21T10:16:43;11.00;99.90
680;DHT22;322;48.846;9.230;2022-11-21T10:19:33;11.00;99.90
680;DHT22;322;48.846;9.230;2022-11-21T10:22:26;11.80;99.90
680;DHT22;322;48.846;9.230;2022-11-21T10:24:58;13.00;99.90
680;DHT22;322;48.846;9.230;2022-11-21T10:27:33;13.80;99.90
680;DHT22;322;48.846;9.230;2022-11-21T10:30:05;14.30;99.90
680;DHT22;322;48.846;9.230;2022-11-21T10:32:36;15.00;99.90
680;DHT22;322;48.846;9.230;2022-11-21T10:35:12;15.20;99.90
680;DHT22;322;48.846;9.230;2022-11-21T10:37:44;15.00;99.90
680;DHT22;322;48.846;9.230;2022-11-21T10:40:34;14.00;99.90
680;DHT22;322;48.846;9.230;2022-11-21T10:43:04;13.50;99.90
680;DHT22;322;48.846;9.230;2022-11-21T10:45:53;12.90;99.90
680;DHT22;322;48.846;9.230;2022-11-21T10:48:19;12.50;99.90
680;DHT22;322;48.846;9.230;2022-11-21T10:50:58;12.00;99.90
680;DHT22;322;48.846;9.230;2022-11-21T10:53:29;12.00;99.90
680;DHT22;322;48.846;9.230;2022-11-21T10:56:16;12.20;99.90
680;DHT22;322;48.846;9.230;2022-11-21T10:58:45;11.90;99.90
680;DHT22;322;48.846;9.230;2022-11-21T11:01:22;11.80;99.90
680;DHT22;322;48.846;9.230;2022-11-21T11:06:47;11.70;99.90
680;DHT22;322;48.846;9.230;2022-11-21T11:09:28;10.60;99.90
680;DHT22;322;48.846;9.230;2022-11-21T11:12:21;9.50;99.90
680;DHT22;322;48.846;9.230;2022-11-21T11:14:50;8.80;99.90
680;DHT22;322;48.846;9.230;2022-11-21T11:17:27;8.60;99.90
680;DHT22;322;48.846;9.230;2022-11-21T11:20:04;8.60;99.90
680;DHT22;322;48.846;9.230;2022-11-21T11:22:31;8.40;99.90
680;DHT22;322;48.846;9.230;2022-11-21T11:24:58;8.50;99.90
680;DHT22;322;48.846;9.230;2022-11-21T11:27:28;8.60;99.90
680;DHT22;322;48.846;9.230;2022-11-21T11:29:55;8.80;99.90
680;DHT22;322;48.846;9.230;2022-11-21T11:32:22;8.90;99.90
680;DHT22;322;48.846;9.230;2022-11-21T11:34:57;9.10;99.90
680;DHT22;322;48.846;9.230;2022-11-21T11:37:33;9.20;99.90
680;DHT22;322;48.846;9.230;2022-11-21T11:40:12;9.20;99.90
680;DHT22;322;48.846;9.230;2022-11-21T11:42:52;9.20;99.90
680;DHT22;322;48.846;9.230;2022-11-21T11:46:10;9.50;99.90
680;DHT22;322;48.846;9.230;2022-11-21T11:49:02;9.60;99.90
680;DHT22;322;48.846;9.230;2022-11-21T11:51:36;9.80;99.90
680;DHT22;322;48.846;9.230;2022-11-21T11:54:09;10.00;99.90
680;DHT22;322;48.846;9.230;2022-11-21T11:56:38;10.30;99.90
680;DHT22;322;48.846;9.230;2022-11-21T11:59:11;10.30;99.90
680;DHT22;322;48.846;9.230;2022-11-21T12:01:41;10.30;99.90
680;DHT22;322;48.846;9.230;2022-11-21T12:04:13;10.30;99.90
680;DHT22;322;48.846;9.230;2022-11-21T12:06:45;10.10;99.90
680;DHT22;322;48.846;9.230;2022-11-21T12:09:19;10.10;99.90
680;DHT22;322;48.846;9.230;2022-11-21T12:11:52;10.10;99.90
680;DHT22;322;48.846;9.230;2022-11-21T12:14:55;10.20;99.90
680;DHT22;322;48.846;9.230;2022-11-21T12:17:43;10.50;99.90
680;DHT22;322;48.846;9.230;2022-11-21T12:20:17;10.80;99.90
680;DHT22;322;48.846;9.230;2022-11-21T12:22:47;11.00;99.90
680;DHT22;322;48.846;9.230;2022-11-21T12:25:15;10.90;99.90
680;DHT22;322;48.846;9.230;2022-11-21T12:27:46;10.80;99.90
680;DHT22;322;48.846;9.230;2022-11-21T12:30:32;10.70;99.90
680;DHT22;322;48.846;9.230;2022-11-21T12:33:03;10.50;99.90
680;DHT22;322;48.846;9.230;2022-11-21T12:35:52;10.40;99.90
680;DHT22;322;48.846;9.230;2022-11-21T12:38:40;10.20;99.90
680;DHT22;322;48.846;9.230;2022-11-21T12:41:15;10.20;99.90
680;DHT22;322;48.846;9.230;2022-11-21T12:44:18;10.10;99.90
680;DHT22;322;48.846;9.230;2022-11-21T12:47:00;10.00;99.90
680;DHT22;322;48.846;9.230;2022-11-21T12:49:40;9.90;99.90
680;DHT22;322;48.846;9.230;2022-11-21T12:52:29;10.00;99.90
680;DHT22;322;48.846;9.230;2022-11-21T12:55:30;10.00;99.90
680;DHT22;322;48.846;9.230;2022-11-21T12:58:08;10.30;99.90
680;DHT22;322;48.846;9.230;2022-11-21T13:00:46;10.60;99.90
680;DHT22;322;48.846;9.230;2022-11-21T13:06:16;11.10;99.90
680;DHT22;322;48.846;9.230;2022-11-21T13:08:46;11.20;99.90
680;DHT22;322;48.846;9.230;2022-11-21T13:11:26;11.40;99.90
680;DHT22;322;48.846;9.230;2022-11-21T13:14:15;11.40;99.90
680;DHT22;322;48.846;9.230;2022-11-21T13:16:48;11.30;99.90
680;DHT22;322;48.846;9.230;2022-11-21T13:19:21;11.10;99.90
680;DHT22;322;48.846;9.230;2022-11-21T13:21:50;11.20;99.90
680;DHT22;322;48.846;9.230;2022-11-21T13:24:53;11.10;99.90
680;DHT22;322;48.846;9.230;2022-11-21T13:27:27;11.00;99.90
680;DHT22;322;48.846;9.230;2022-11-21T13:32:58;10.80;99.90
680;DHT22;322;48.846;9.230;2022-11-21T13:35:58;10.70;99.90
680;DHT22;322;48.846;9.230;2022-11-21T13:38:25;10.50;99.90
680;DHT22;322;48.846;9.230;2022-11-21T13:40:52;10.40;99.90
680;DHT22;322;48.846;9.230;2022-11-21T13:43:37;10.40;99.90
680;DHT22;322;48.846;9.230;2022-11-21T13:46:04;10.40;99.90
680;DHT22;322;48.846;9.230;2022-11-21T13:48:57;10.60;99.90
680;DHT22;322;48.846;9.230;2022-11-21T13:51:51;10.70;99.90
680;DHT22;322;48.846;9.230;2022-11-21T13:54:46;10.90;99.90
680;DHT22;322;48.846;9.230;2022-11-21T13:57:29;10.90;99.90
680;DHT22;322;48.846;9.230;2022-11-21T14:00:21;11.00;99.90
680;DHT22;322;48.846;9.230;2022-11-21T14:06:12;11.10;99.90
680;DHT22;322;48.846;9.230;2022-11-21T14:09:04;11.10;99.90
680;DHT22;322;48.846;9.230;2022-11-21T14:11:36;11.00;99.90
680;DHT22;322;48.846;9.230;2022-11-21T14:14:07;11.10;99.90
680;DHT22;322;48.846;9.230;2022-11-21T14:16:40;11.10;99.90
680;DHT22;322;48.846;9.230;2022-11-21T14:19:12;11.10;99.90
680;DHT22;322;48.846;9.230;2022-11-21T14:21:44;11.10;99.90
680;DHT22;322;48.846;9.230;2022-11-21T14:24:13;11.10;99.90
680;DHT22;322;48.846;9.230;2022-11-21T14:26:44;11.00;99.90
680;DHT22;322;48.846;9.230;2022-11-21T14:29:16;10.90;99.90
680;DHT22;322;48.846;9.230;2022-11-21T14:31:45;10.70;99.90
680;DHT22;322;48.846;9.230;2022-11-21T14:34:12;10.70;99.90
680;DHT22;322;48.846;9.230;2022-11-21T14:36:48;10.50;99.90
680;DHT22;322;48.846;9.230;2022-11-21T14:39:16;10.50;99.90
680;DHT22;322;48.846;9.230;2022-11-21T14:41:47;10.40;99.90
680;DHT22;322;48.846;9.230;2022-11-21T14:44:18;10.30;99.90
680;DHT22;322;48.846;9.230;2022-11-21T14:46:47;10.30;99.90
680;DHT22;322;48.846;9.230;2022-11-21T14:49:22;10.20;99.90
680;DHT22;322;48.846;9.230;2022-11-21T14:51:52;10.10;99.90
680;DHT22;322;48.846;9.230;2022-11-21T14:54:25;10.00;99.90
680;DHT22;322;48.846;9.230;2022-11-21T14:56:56;9.90;99.90
680;DHT22;322;48.846;9.230;2022-11-21T14:59:25;9.80;99.90
680;DHT22;322;48.846;9.230;2022-11-21T15:01:59;9.80;99.90
680;DHT22;322;48.846;9.230;2022-11-21T15:04:30;9.70;99.90
680;DHT22;322;48.846;9.230;2022-11-21T15:06:57;9.70;99.90
680;DHT22;322;48.846;9.230;2022-11-21T15:09:25;9.50;99.90
680;DHT22;322;48.846;9.230;2022-11-21T15:11:57;9.40;99.90
680;DHT22;322;48.846;9.230;2022-11-21T15:14:30;9.30;99.90
680;DHT22;322;48.846;9.230;2022-11-21T15:17:01;9.20;99.90
680;DHT22;322;48.846;9.230;2022-11-21T15:19:30;9.00;99.90
680;DHT22;322;48.846;9.230;2022-11-21T15:21:59;8.90;99.90
680;DHT22;322;48.846;9.230;2022-11-21T15:24:33;8.80;99.90
680;DHT22;322;48.846;9.230;2022-11-21T15:27:27;8.70;99.90
680;DHT22;322;48.846;9.230;2022-11-21T15:30:17;8.50;99.90
680;DHT22;322;48.846;9.230;2022-11-21T15:33:00;8.40;99.90
680;DHT22;322;48.846;9.230;2022-11-21T15:35:37;8.30;99.90
680;DHT22;322;48.846;9.230;2022-11-21T15:38:16;8.20;99.90
680;DHT22;322;48.846;9.230;2022-11-21T15:41:01;8.10;99.90
680;DHT22;322;48.846;9.230;2022-11-21T15:43:39;8.00;99.90
680;DHT22;322;48.846;9.230;2022-11-21T15:46:14;7.80;99.90
680;DHT22;322;48.846;9.230;2022-11-21T15:48:44;7.70;99.90
680;DHT22;322;48.846;9.230;2022-11-21T15:51:11;7.60;99.90
680;DHT22;322;48.846;9.230;2022-11-21T15:53:38;7.50;99.90
680;DHT22;322;48.846;9.230;2022-11-21T15:56:05;7.40;99.90
680;DHT22;322;48.846;9.230;2022-11-21T15:58:32;7.40;99.90
680;DHT22;322;48.846;9.230;2022-11-21T16:00:59;7.10;99.90
680;DHT22;322;48.846;9.230;2022-11-21T16:03:26;7.00;99.90
680;DHT22;322;48.846;9.230;2022-11-21T16:05:54;7.00;99.90
680;DHT22;322;48.846;9.230;2022-11-21T16:08:21;7.00;99.90
680;DHT22;322;48.846;9.230;2022-11-21T16:10:48;6.90;99.90
680;DHT22;322;48.846;9.230;2022-11-21T16:13:15;6.80;99.90
680;DHT22;322;48.846;9.230;2022-11-21T16:15:41;6.60;99.90
680;DHT22;322;48.846;9.230;2022-11-21T16:18:08;6.50;99.90
680;DHT22;322;48.846;9.230;2022-11-21T16:20:35;6.40;99.90
680;DHT22;322;48.846;9.230;2022-11-21T16:23:03;6.40;99.90
680;DHT22;322;48.846;9.230;2022-11-21T16:25:30;6.40;99.90
680;DHT22;322;48.846;9.230;2022-11-21T16:27:57;6.30;99.90
680;DHT22;322;48.846;9.230;2022-11-21T16:30:24;6.30;99.90
680;DHT22;322;48.846;9.230;2022-11-21T16:32:51;6.20;99.90
680;DHT22;322;48.846;9.230;2022-11-21T16:35:20;6.20;99.90
680;DHT22;322;48.846;9.230;2022-11-21T16:37:47;6.20;99.90
680;DHT22;322;48.846;9.230;2022-11-21T16:40:16;6.20;99.90
680;DHT22;322;48.846;9.230;2022-11-21T16:42:42;6.10;99.90
680;DHT22;322;48.846;9.230;2022-11-21T16:45:09;6.10;99.90
680;DHT22;322;48.846;9.230;2022-11-21T16:47:36;6.00;99.90
680;DHT22;322;48.846;9.230;2022-11-21T16:50:04;6.10;99.90
680;DHT22;322;48.846;9.230;2022-11-21T16:52:32;6.10;99.90
680;DHT22;322;48.846;9.230;2022-11-21T16:55:00;6.10;99.90
680;DHT22;322;48.846;9.230;2022-11-21T16:57:28;6.00;99.90
680;DHT22;322;48.846;9.230;2022-11-21T16:59:55;6.00;99.90
680;DHT22;322;48.846;9.230;2022-11-21T17:02:22;6.00;99.90
680;DHT22;322;48.846;9.230;2022-11-21T17:04:49;5.90;99.90
680;DHT22;322;48.846;9.230;2022-11-21T17:07:16;5.90;99.90
680;DHT22;322;48.846;9.230;2022-11-21T17:09:43;5.90;99.90
680;DHT22;322;48.846;9.230;2022-11-21T17:12:10;5.80;99.90
680;DHT22;322;48.846;9.230;2022-11-21T17:14:38;5.80;99.90
680;DHT22;322;48.846;9.230;2022-11-21T17:17:05;5.70;99.90
680;DHT22;322;48.846;9.230;2022-11-21T17:19:31;5.70;99.90
680;DHT22;322;48.846;9.230;2022-11-21T17:21:58;5.70;99.90